sensor_id;sensor_type;location;lat;lon;timestamp;temperature;humidity
5419;DHT22;2732;52.092;11.556;2024-02-04T00:02:18;7.60;99.90
5419;DHT22;2732;52.092;11.556;2024-02-04T00:07:20;7.60;99.90
5419;DHT22;2732;52.092;11.556;2024-02-04T00:12:21;7.60;99.90
5419;DHT22;2732;52.092;11.556;2024-02-04T00:17:22;7.50;99.90
5419;DHT22;2732;52.092;11.556;2024-02-04T00:22:23;7.50;99.90
5419;DHT22;2732;52.092;11.556;2024-02-04T00:27:23;7.50;99.90
5419;DHT22;2732;52.092;11.556;2024-02-04T00:32:24;7.50;99.90
5419;DHT22;2732;52.092;11.556;2024-02-04T00:37:26;7.50;99.90
5419;DHT22;2732;52.092;11.556;2024-02-04T00:42:26;7.50;99.90
5419;DHT22;2732;52.092;11.556;2024-02-04T00:47:27;7.50;99.90
5419;DHT22;2732;52.092;11.556;2024-02-04T00:52:27;7.50;99.90
5419;DHT22;2732;52.092;11.556;2024-02-04T00:57:28;7.50;99.90
5419;DHT22;2732;52.092;11.556;2024-02-04T01:02:28;7.50;99.90
5419;DHT22;2732;52.092;11.556;2024-02-04T01:07:29;7.50;99.90
5419;DHT22;2732;52.092;11.556;2024-02-04T01:12:30;7.50;99.90
5419;DHT22;2732;52.092;11.556;2024-02-04T01:17:30;7.40;99.90
5419;DHT22;2732;52.092;11.556;2024-02-04T01:22:31;7.40;99.90
5419;DHT22;2732;52.092;11.556;2024-02-04T01:27:31;7.30;99.90
5419;DHT22;2732;52.092;11.556;2024-02-04T01:32:32;7.30;99.90
5419;DHT22;2732;52.092;11.556;2024-02-04T01:37:33;7.30;99.90
5419;DHT22;2732;52.092;11.556;2024-02-04T01:42:33;7.20;99.90
5419;DHT22;2732;52.092;11.556;2024-02-04T01:47:34;7.20;99.90
5419;DHT22;2732;52.092;11.556;2024-02-04T01:52:36;7.20;99.90
5419;DHT22;2732;52.092;11.556;2024-02-04T01:57:38;7.10;99.90
5419;DHT22;2732;52.092;11.556;2024-02-04T02:02:40;7.10;99.90
5419;DHT22;2732;52.092;11.556;2024-02-04T02:07:41;7.10;99.90
5419;DHT22;2732;52.092;11.556;2024-02-04T02:13:11;7.00;99.90
5419;DHT22;2732;52.092;11.556;2024-02-04T02:18:31;7.00;99.90
5419;DHT22;2732;52.092;11.556;2024-02-04T02:23:48;6.90;99.90
5419;DHT22;2732;52.092;11.556;2024-02-04T02:28:49;6.90;99.90
5419;DHT22;2732;52.092;11.556;2024-02-04T02:33:50;6.90;99.90
5419;DHT22;2732;52.092;11.556;2024-02-04T02:39:31;6.90;99.90
5419;DHT22;2732;52.092;11.556;2024-02-04T02:44:40;6.90;99.90
5419;DHT22;2732;52.092;11.556;2024-02-04T02:49:41;6.80;99.90
5419;DHT22;2732;52.092;11.556;2024-02-04T02:54:42;6.80;99.90
5419;DHT22;2732;52.092;11.556;2024-02-04T02:59:43;6.80;99.90
5419;DHT22;2732;52.092;11.556;2024-02-04T03:04:43;6.80;99.90
5419;DHT22;2732;52.092;11.556;2024-02-04T03:09:45;6.80;99.90
5419;DHT22;2732;52.092;11.556;2024-02-04T03:14:45;6.70;99.90
5419;DHT22;2732;52.092;11.556;2024-02-04T03:19:47;6.70;99.90
5419;DHT22;2732;52.092;11.556;2024-02-04T03:24:49;6.70;99.90
5419;DHT22;2732;52.092;11.556;2024-02-04T03:29:50;6.70;99.90
5419;DHT22;2732;52.092;11.556;2024-02-04T03:34:50;6.70;99.90
5419;DHT22;2732;52.092;11.556;2024-02-04T03:39:51;6.70;99.90
5419;DHT22;2732;52.092;11.556;2024-02-04T03:44:51;6.70;99.90
5419;DHT22;2732;52.092;11.556;2024-02-04T03:49:52;6.70;99.90
5419;DHT22;2732;52.092;11.556;2024-02-04T03:54:53;6.70;99.90
5419;DHT22;2732;52.092;11.556;2024-02-04T03:59:53;6.70;99.90
5419;DHT22;2732;52.092;11.556;2024-02-04T04:04:54;6.70;99.90
5419;DHT22;2732;52.092;11.556;2024-02-04T04:09:54;6.80;99.90
5419;DHT22;2732;52.092;11.556;2024-02-04T04:14:55;6.80;99.90
5419;DHT22;2732;52.092;11.556;2024-02-04T04:19:55;6.80;99.90
5419;DHT22;2732;52.092;11.556;2024-02-04T04:24:56;6.80;99.90
5419;DHT22;2732;52.092;11.556;2024-02-04T04:29:56;6.80;99.90
5419;DHT22;2732;52.092;11.556;2024-02-04T04:34:57;6.80;99.90
5419;DHT22;2732;52.092;11.556;2024-02-04T04:39:58;6.90;99.90
5419;DHT22;2732;52.092;11.556;2024-02-04T04:44:58;6.90;99.90
5419;DHT22;2732;52.092;11.556;2024-02-04T04:49:59;6.90;99.90
5419;DHT22;2732;52.092;11.556;2024-02-04T04:55:00;6.90;99.90
5419;DHT22;2732;52.092;11.556;2024-02-04T05:00:00;6.90;99.90
5419;DHT22;2732;52.092;11.556;2024-02-04T05:05:06;6.90;99.90
5419;DHT22;2732;52.092;11.556;2024-02-04T05:10:07;6.90;99.90
5419;DHT22;2732;52.092;11.556;2024-02-04T05:15:08;6.90;99.90
5419;DHT22;2732;52.092;11.556;2024-02-04T05:20:09;6.90;99.90
5419;DHT22;2732;52.092;11.556;2024-02-04T05:25:10;6.90;99.90
5419;DHT22;2732;52.092;11.556;2024-02-04T05:30:12;6.90;99.90
5419;DHT22;2732;52.092;11.556;2024-02-04T05:35:13;7.00;99.90
5419;DHT22;2732;52.092;11.556;2024-02-04T05:40:13;7.00;99.90
5419;DHT22;2732;52.092;11.556;2024-02-04T05:45:17;7.00;99.90
5419;DHT22;2732;52.092;11.556;2024-02-04T05:50:17;7.10;99.90
5419;DHT22;2732;52.092;11.556;2024-02-04T05:55:18;7.10;99.90
5419;DHT22;2732;52.092;11.556;2024-02-04T06:00:19;7.20;99.90
5419;DHT22;2732;52.092;11.556;2024-02-04T06:05:19;7.20;99.90
5419;DHT22;2732;52.092;11.556;2024-02-04T06:10:20;7.20;99.90
5419;DHT22;2732;52.092;11.556;2024-02-04T06:15:21;7.10;99.90
5419;DHT22;2732;52.092;11.556;2024-02-04T06:20:21;7.20;99.90
5419;DHT22;2732;52.092;11.556;2024-02-04T06:25:22;7.20;99.90
5419;DHT22;2732;52.092;11.556;2024-02-04T06:30:23;7.20;99.90
5419;DHT22;2732;52.092;11.556;2024-02-04T06:35:23;7.20;99.90
5419;DHT22;2732;52.092;11.556;2024-02-04T06:40:24;7.20;99.90
5419;DHT22;2732;52.092;11.556;2024-02-04T06:45:24;7.20;99.90
5419;DHT22;2732;52.092;11.556;2024-02-04T06:50:25;7.30;99.90
5419;DHT22;2732;52.092;11.556;2024-02-04T06:55:26;7.30;99.90
5419;DHT22;2732;52.092;11.556;2024-02-04T07:00:26;7.30;99.90
5419;DHT22;2732;52.092;11.556;2024-02-04T07:05:27;7.30;99.90
5419;DHT22;2732;52.092;11.556;2024-02-04T07:10:28;7.30;99.90
5419;DHT22;2732;52.092;11.556;2024-02-04T07:15:28;7.30;99.90
5419;DHT22;2732;52.092;11.556;2024-02-04T07:20:29;7.30;99.90
5419;DHT22;2732;52.092;11.556;2024-02-04T07:25:30;7.30;99.90
5419;DHT22;2732;52.092;11.556;2024-02-04T07:30:30;7.30;99.90
5419;DHT22;2732;52.092;11.556;2024-02-04T07:35:31;7.40;99.90
5419;DHT22;2732;52.092;11.556;2024-02-04T07:40:32;7.40;99.90
5419;DHT22;2732;52.092;11.556;2024-02-04T07:45:33;7.50;99.90
5419;DHT22;2732;52.092;11.556;2024-02-04T07:50:35;7.60;99.90
5419;DHT22;2732;52.092;11.556;2024-02-04T07:55:35;7.60;99.90
5419;DHT22;2732;52.092;11.556;2024-02-04T08:00:36;7.70;99.90
5419;DHT22;2732;52.092;11.556;2024-02-04T08:05:36;7.80;99.90
5419;DHT22;2732;52.092;11.556;2024-02-04T08:10:37;7.80;99.90
5419;DHT22;2732;52.092;11.556;2024-02-04T08:15:38;7.90;99.90
5419;DHT22;2732;52.092;11.556;2024-02-04T08:20:38;7.90;99.90
5419;DHT22;2732;52.092;11.556;2024-02-04T08:25:39;8.00;99.90
5419;DHT22;2732;52.092;11.556;2024-02-04T08:30:39;8.10;99.90
5419;DHT22;2732;52.092;11.556;2024-02-04T08:35:40;8.20;99.90
5419;DHT22;2732;52.092;11.556;2024-02-04T08:40:41;8.30;99.90
5419;DHT22;2732;52.092;11.556;2024-02-04T08:45:42;8.40;99.90
5419;DHT22;2732;52.092;11.556;2024-02-04T08:50:42;8.40;99.90
5419;DHT22;2732;52.092;11.556;2024-02-04T08:55:43;8.40;99.90
5419;DHT22;2732;52.092;11.556;2024-02-04T09:00:43;8.50;99.90
5419;DHT22;2732;52.092;11.556;2024-02-04T09:05:44;8.70;99.90
5419;DHT22;2732;52.092;11.556;2024-02-04T09:10:45;8.80;99.90
5419;DHT22;2732;52.092;11.556;2024-02-04T09:15:45;8.90;99.90
5419;DHT22;2732;52.092;11.556;2024-02-04T09:20:46;9.00;99.90
5419;DHT22;2732;52.092;11.556;2024-02-04T09:25:47;9.00;99.90
5419;DHT22;2732;52.092;11.556;2024-02-04T09:30:48;9.00;99.90
5419;DHT22;2732;52.092;11.556;2024-02-04T09:35:49;9.10;99.90
5419;DHT22;2732;52.092;11.556;2024-02-04T09:40:49;9.10;99.90
5419;DHT22;2732;52.092;11.556;2024-02-04T09:45:50;9.10;99.90
5419;DHT22;2732;52.092;11.556;2024-02-04T09:50:52;9.20;99.90
5419;DHT22;2732;52.092;11.556;2024-02-04T09:55:54;9.30;99.90
5419;DHT22;2732;52.092;11.556;2024-02-04T10:00:56;9.50;99.90
5419;DHT22;2732;52.092;11.556;2024-02-04T10:05:57;9.50;99.90
5419;DHT22;2732;52.092;11.556;2024-02-04T10:10:58;9.60;99.90
5419;DHT22;2732;52.092;11.556;2024-02-04T10:15:59;9.70;99.90
5419;DHT22;2732;52.092;11.556;2024-02-04T10:21:00;9.70;99.90
5419;DHT22;2732;52.092;11.556;2024-02-04T10:26:00;9.70;99.90
5419;DHT22;2732;52.092;11.556;2024-02-04T10:31:01;9.70;99.90
5419;DHT22;2732;52.092;11.556;2024-02-04T10:36:03;9.70;99.90
5419;DHT22;2732;52.092;11.556;2024-02-04T10:41:04;9.70;99.90
5419;DHT22;2732;52.092;11.556;2024-02-04T10:46:10;9.80;99.90
5419;DHT22;2732;52.092;11.556;2024-02-04T10:51:15;9.80;99.90
5419;DHT22;2732;52.092;11.556;2024-02-04T10:56:30;9.80;99.90
5419;DHT22;2732;52.092;11.556;2024-02-04T11:01:33;9.90;99.90
5419;DHT22;2732;52.092;11.556;2024-02-04T11:06:34;10.10;99.90
5419;DHT22;2732;52.092;11.556;2024-02-04T11:11:36;10.20;99.90
5419;DHT22;2732;52.092;11.556;2024-02-04T11:16:48;10.20;99.90
5419;DHT22;2732;52.092;11.556;2024-02-04T11:27:51;10.20;99.90
5419;DHT22;2732;52.092;11.556;2024-02-04T11:32:52;10.20;99.90
5419;DHT22;2732;52.092;11.556;2024-02-04T11:37:54;10.20;99.90
5419;DHT22;2732;52.092;11.556;2024-02-04T11:43:07;10.30;99.90
5419;DHT22;2732;52.092;11.556;2024-02-04T11:48:11;10.40;99.90
5419;DHT22;2732;52.092;11.556;2024-02-04T11:53:13;10.40;99.90
5419;DHT22;2732;52.092;11.556;2024-02-04T11:58:14;10.50;99.90
5419;DHT22;2732;52.092;11.556;2024-02-04T12:03:14;10.60;99.90
5419;DHT22;2732;52.092;11.556;2024-02-04T12:08:15;10.60;99.90
5419;DHT22;2732;52.092;11.556;2024-02-04T12:13:16;10.60;99.90
5419;DHT22;2732;52.092;11.556;2024-02-04T12:18:19;10.70;99.90
5419;DHT22;2732;52.092;11.556;2024-02-04T12:23:22;10.70;99.90
5419;DHT22;2732;52.092;11.556;2024-02-04T12:28:24;10.70;99.90
5419;DHT22;2732;52.092;11.556;2024-02-04T12:33:24;10.70;99.90
5419;DHT22;2732;52.092;11.556;2024-02-04T12:38:25;10.70;99.90
5419;DHT22;2732;52.092;11.556;2024-02-04T12:43:26;10.60;99.90
5419;DHT22;2732;52.092;11.556;2024-02-04T12:48:27;10.50;99.90
5419;DHT22;2732;52.092;11.556;2024-02-04T12:53:28;10.40;99.90
5419;DHT22;2732;52.092;11.556;2024-02-04T12:58:28;10.30;99.90
5419;DHT22;2732;52.092;11.556;2024-02-04T13:03:29;10.10;99.90
5419;DHT22;2732;52.092;11.556;2024-02-04T13:08:29;10.10;99.90
5419;DHT22;2732;52.092;11.556;2024-02-04T13:13:31;10.00;99.90
5419;DHT22;2732;52.092;11.556;2024-02-04T13:18:32;9.90;99.90
5419;DHT22;2732;52.092;11.556;2024-02-04T13:23:32;9.90;99.90
5419;DHT22;2732;52.092;11.556;2024-02-04T13:28:35;9.90;99.90
5419;DHT22;2732;52.092;11.556;2024-02-04T13:33:37;9.90;99.90
5419;DHT22;2732;52.092;11.556;2024-02-04T13:38:38;9.80;99.90
5419;DHT22;2732;52.092;11.556;2024-02-04T13:43:39;9.80;99.90
5419;DHT22;2732;52.092;11.556;2024-02-04T13:48:39;9.70;99.90
5419;DHT22;2732;52.092;11.556;2024-02-04T13:53:40;9.80;99.90
5419;DHT22;2732;52.092;11.556;2024-02-04T13:58:41;9.70;99.90
5419;DHT22;2732;52.092;11.556;2024-02-04T14:03:42;9.60;99.90
5419;DHT22;2732;52.092;11.556;2024-02-04T14:08:43;9.60;99.90
5419;DHT22;2732;52.092;11.556;2024-02-04T14:13:44;9.50;99.90
5419;DHT22;2732;52.092;11.556;2024-02-04T14:18:45;9.50;99.90
5419;DHT22;2732;52.092;11.556;2024-02-04T14:23:46;9.40;99.90
5419;DHT22;2732;52.092;11.556;2024-02-04T14:28:47;9.40;99.90
5419;DHT22;2732;52.092;11.556;2024-02-04T14:33:48;9.30;99.90
5419;DHT22;2732;52.092;11.556;2024-02-04T14:38:49;9.30;99.90
5419;DHT22;2732;52.092;11.556;2024-02-04T14:43:50;9.30;99.90
5419;DHT22;2732;52.092;11.556;2024-02-04T14:48:50;9.30;99.90
5419;DHT22;2732;52.092;11.556;2024-02-04T14:53:52;9.20;99.90
5419;DHT22;2732;52.092;11.556;2024-02-04T14:58:53;9.20;99.90
5419;DHT22;2732;52.092;11.556;2024-02-04T15:03:54;9.20;99.90
5419;DHT22;2732;52.092;11.556;2024-02-04T15:08:55;9.20;99.90
5419;DHT22;2732;52.092;11.556;2024-02-04T15:13:58;9.10;99.90
5419;DHT22;2732;52.092;11.556;2024-02-04T15:18:59;9.10;99.90
5419;DHT22;2732;52.092;11.556;2024-02-04T15:24:00;9.10;99.90
5419;DHT22;2732;52.092;11.556;2024-02-04T15:29:05;9.00;99.90
5419;DHT22;2732;52.092;11.556;2024-02-04T15:34:05;9.00;99.90
5419;DHT22;2732;52.092;11.556;2024-02-04T15:39:07;9.00;99.90
5419;DHT22;2732;52.092;11.556;2024-02-04T15:44:11;9.00;99.90
5419;DHT22;2732;52.092;11.556;2024-02-04T15:49:13;9.00;99.90
5419;DHT22;2732;52.092;11.556;2024-02-04T15:54:15;8.90;99.90
5419;DHT22;2732;52.092;11.556;2024-02-04T15:59:17;8.90;99.90
5419;DHT22;2732;52.092;11.556;2024-02-04T16:04:18;8.90;99.90
5419;DHT22;2732;52.092;11.556;2024-02-04T16:09:19;8.80;99.90
5419;DHT22;2732;52.092;11.556;2024-02-04T16:14:23;8.80;99.90
5419;DHT22;2732;52.092;11.556;2024-02-04T16:19:26;8.80;99.90
5419;DHT22;2732;52.092;11.556;2024-02-04T16:24:27;8.70;99.90
5419;DHT22;2732;52.092;11.556;2024-02-04T16:29:27;8.70;99.90
5419;DHT22;2732;52.092;11.556;2024-02-04T16:34:28;8.70;99.90
5419;DHT22;2732;52.092;11.556;2024-02-04T16:39:31;8.60;99.90
5419;DHT22;2732;52.092;11.556;2024-02-04T16:44:32;8.60;99.90
5419;DHT22;2732;52.092;11.556;2024-02-04T16:49:32;8.50;99.90
5419;DHT22;2732;52.092;11.556;2024-02-04T16:54:33;8.50;99.90
5419;DHT22;2732;52.092;11.556;2024-02-04T16:59:34;8.50;99.90
5419;DHT22;2732;52.092;11.556;2024-02-04T17:04:36;8.50;99.90
5419;DHT22;2732;52.092;11.556;2024-02-04T17:09:37;8.40;99.90
5419;DHT22;2732;52.092;11.556;2024-02-04T17:14:38;8.40;99.90
5419;DHT22;2732;52.092;11.556;2024-02-04T17:19:50;8.40;99.90
5419;DHT22;2732;52.092;11.556;2024-02-04T17:24:53;8.40;99.90
5419;DHT22;2732;52.092;11.556;2024-02-04T17:29:58;8.30;99.90
5419;DHT22;2732;52.092;11.556;2024-02-04T17:35:01;8.30;99.90
5419;DHT22;2732;52.092;11.556;2024-02-04T17:40:04;8.30;99.90
5419;DHT22;2732;52.092;11.556;2024-02-04T17:45:06;8.30;99.90
5419;DHT22;2732;52.092;11.556;2024-02-04T17:50:08;8.20;99.90
5419;DHT22;2732;52.092;11.556;2024-02-04T17:55:11;8.20;99.90
5419;DHT22;2732;52.092;11.556;2024-02-04T18:00:12;8.20;99.90
5419;DHT22;2732;52.092;11.556;2024-02-04T18:05:13;8.20;99.90
5419;DHT22;2732;52.092;11.556;2024-02-04T18:10:14;8.20;99.90
5419;DHT22;2732;52.092;11.556;2024-02-04T18:15:14;8.10;99.90
5419;DHT22;2732;52.092;11.556;2024-02-04T18:20:15;8.10;99.90
5419;DHT22;2732;52.092;11.556;2024-02-04T18:25:16;8.10;99.90
5419;DHT22;2732;52.092;11.556;2024-02-04T18:30:16;8.10;99.90
5419;DHT22;2732;52.092;11.556;2024-02-04T18:35:19;8.10;99.90
5419;DHT22;2732;52.092;11.556;2024-02-04T18:40:20;8.00;99.90
5419;DHT22;2732;52.092;11.556;2024-02-04T18:45:20;8.00;99.90
5419;DHT22;2732;52.092;11.556;2024-02-04T18:50:21;8.00;99.90
5419;DHT22;2732;52.092;11.556;2024-02-04T18:55:22;8.00;99.90
5419;DHT22;2732;52.092;11.556;2024-02-04T19:00:23;8.00;99.90
5419;DHT22;2732;52.092;11.556;2024-02-04T19:05:24;7.90;99.90
5419;DHT22;2732;52.092;11.556;2024-02-04T19:10:24;7.90;99.90
5419;DHT22;2732;52.092;11.556;2024-02-04T19:15:26;7.90;99.90
5419;DHT22;2732;52.092;11.556;2024-02-04T19:20:26;7.90;99.90
5419;DHT22;2732;52.092;11.556;2024-02-04T19:25:27;7.90;99.90
5419;DHT22;2732;52.092;11.556;2024-02-04T19:30:27;7.90;99.90
5419;DHT22;2732;52.092;11.556;2024-02-04T19:35:28;7.90;99.90
5419;DHT22;2732;52.092;11.556;2024-02-04T19:40:29;7.90;99.90
5419;DHT22;2732;52.092;11.556;2024-02-04T19:45:29;7.90;99.90
5419;DHT22;2732;52.092;11.556;2024-02-04T19:50:30;7.90;99.90
5419;DHT22;2732;52.092;11.556;2024-02-04T19:55:30;7.90;99.90
5419;DHT22;2732;52.092;11.556;2024-02-04T20:00:31;7.90;99.90
5419;DHT22;2732;52.092;11.556;2024-02-04T20:05:32;7.90;99.90
5419;DHT22;2732;52.092;11.556;2024-02-04T20:10:33;7.90;99.90
5419;DHT22;2732;52.092;11.556;2024-02-04T20:15:33;7.90;99.90
5419;DHT22;2732;52.092;11.556;2024-02-04T20:20:34;7.90;99.90
5419;DHT22;2732;52.092;11.556;2024-02-04T20:25:35;7.90;99.90
5419;DHT22;2732;52.092;11.556;2024-02-04T20:30:38;7.90;99.90
5419;DHT22;2732;52.092;11.556;2024-02-04T20:35:38;7.90;99.90
5419;DHT22;2732;52.092;11.556;2024-02-04T20:40:39;7.90;99.90
5419;DHT22;2732;52.092;11.556;2024-02-04T20:45:41;7.90;99.90
5419;DHT22;2732;52.092;11.556;2024-02-04T20:50:45;7.90;99.90
5419;DHT22;2732;52.092;11.556;2024-02-04T20:55:46;7.90;99.90
5419;DHT22;2732;52.092;11.556;2024-02-04T21:00:47;8.00;99.90
5419;DHT22;2732;52.092;11.556;2024-02-04T21:05:47;8.00;99.90
5419;DHT22;2732;52.092;11.556;2024-02-04T21:10:48;8.00;99.90
5419;DHT22;2732;52.092;11.556;2024-02-04T21:15:49;8.00;99.90
5419;DHT22;2732;52.092;11.556;2024-02-04T21:20:49;8.00;99.90
5419;DHT22;2732;52.092;11.556;2024-02-04T21:25:50;8.00;99.90
5419;DHT22;2732;52.092;11.556;2024-02-04T21:30:51;8.10;99.90
5419;DHT22;2732;52.092;11.556;2024-02-04T21:35:51;8.10;99.90
5419;DHT22;2732;52.092;11.556;2024-02-04T21:40:54;8.20;99.90
5419;DHT22;2732;52.092;11.556;2024-02-04T21:45:54;8.20;99.90
5419;DHT22;2732;52.092;11.556;2024-02-04T21:50:55;8.30;99.90
5419;DHT22;2732;52.092;11.556;2024-02-04T21:55:55;8.30;99.90
5419;DHT22;2732;52.092;11.556;2024-02-04T22:00:56;8.40;99.90
5419;DHT22;2732;52.092;11.556;2024-02-04T22:05:57;8.40;99.90
5419;DHT22;2732;52.092;11.556;2024-02-04T22:10:58;8.50;99.90
5419;DHT22;2732;52.092;11.556;2024-02-04T22:15:58;8.60;99.90
5419;DHT22;2732;52.092;11.556;2024-02-04T22:20:59;8.70;99.90
5419;DHT22;2732;52.092;11.556;2024-02-04T22:25:59;8.80;99.90
5419;DHT22;2732;52.092;11.556;2024-02-04T22:31:00;8.90;99.90
5419;DHT22;2732;52.092;11.556;2024-02-04T22:36:01;8.90;99.90
5419;DHT22;2732;52.092;11.556;2024-02-04T22:41:02;9.00;99.90
5419;DHT22;2732;52.092;11.556;2024-02-04T22:46:04;9.10;99.90
5419;DHT22;2732;52.092;11.556;2024-02-04T22:51:04;9.10;99.90
5419;DHT22;2732;52.092;11.556;2024-02-04T22:56:06;9.20;99.90
5419;DHT22;2732;52.092;11.556;2024-02-04T23:01:08;9.20;99.90
5419;DHT22;2732;52.092;11.556;2024-02-04T23:06:08;9.30;99.90
5419;DHT22;2732;52.092;11.556;2024-02-04T23:11:09;9.30;99.90
5419;DHT22;2732;52.092;11.556;2024-02-04T23:16:09;9.40;99.90
5419;DHT22;2732;52.092;11.556;2024-02-04T23:21:10;9.40;99.90
5419;DHT22;2732;52.092;11.556;2024-02-04T23:26:11;9.50;99.90
5419;DHT22;2732;52.092;11.556;2024-02-04T23:31:12;9.50;99.90
5419;DHT22;2732;52.092;11.556;2024-02-04T23:36:13;9.50;99.90
5419;DHT22;2732;52.092;11.556;2024-02-04T23:41:14;9.50;99.90
5419;DHT22;2732;52.092;11.556;2024-02-04T23:46:15;9.60;99.90
5419;DHT22;2732;52.092;11.556;2024-02-04T23:51:15;9.60;99.90
5419;DHT22;2732;52.092;11.556;2024-02-04T23:56:16;9.60;99.90
